createdAt,value
2022-11-02T00:00:37.297Z,45.45
2022-11-02T00:03:08.119Z,46.92
2022-11-02T00:05:39.945Z,46.17
2022-11-02T00:08:10.447Z,45.30
2022-11-02T00:10:41.008Z,61.83
2022-11-02T00:15:41.617Z,40.00
2022-11-02T00:18:14.969Z,53.92
2022-11-02T00:20:46.622Z,53.17
2022-11-02T00:23:18.562Z,49.08
2022-11-02T00:25:53.851Z,51.20
2022-11-02T00:28:24.333Z,47.72
2022-11-02T00:30:54.901Z,62.00
2022-11-02T00:35:56.340Z,47.40
2022-11-02T00:38:26.571Z,43.15
2022-11-02T00:40:57.015Z,54.20
2022-11-02T00:43:27.339Z,43.35
2022-11-02T00:45:58.790Z,46.40
2022-11-02T00:48:29.131Z,70.68
2022-11-02T00:50:59.700Z,57.78
2022-11-02T00:55:59.829Z,56.93
2022-11-02T00:58:30.361Z,64.35
2022-11-02T01:03:30.600Z,69.97
2022-11-02T01:06:01.163Z,73.95
2022-11-02T01:11:12.879Z,72.47
2022-11-02T01:13:43.348Z,76.25
2022-11-02T01:16:15.280Z,62.45
2022-11-02T01:18:45.863Z,57.83
2022-11-02T01:23:46.372Z,64.30
2022-11-02T01:26:16.985Z,71.05
2022-11-02T01:31:17.418Z,85.90
2022-11-02T01:33:49.090Z,68.35
2022-11-02T01:38:53.585Z,68.53
2022-11-02T01:41:24.645Z,58.97
2022-11-02T01:43:58.515Z,52.95
2022-11-02T01:46:40.282Z,55.33
2022-11-02T01:49:22.092Z,59.72
2022-11-02T01:52:02.082Z,55.42
2022-11-02T01:54:40.088Z,50.95
2022-11-02T01:57:15.153Z,57.42
2022-11-02T01:59:53.859Z,53.38
2022-11-02T02:02:27.586Z,64.68
2022-11-02T02:05:10.218Z,60.80
2022-11-02T02:07:42.918Z,56.35
2022-11-02T02:10:14.031Z,51.53
2022-11-02T02:12:45.919Z,56.97
2022-11-02T02:15:16.865Z,58.85
2022-11-02T02:18:06.263Z,61.45
2022-11-02T02:21:00.616Z,59.45
2022-11-02T02:24:00.716Z,81.00
2022-11-02T02:27:01.216Z,59.92
2022-11-02T02:32:47.758Z,71.65
2022-11-02T02:35:38.145Z,74.65
2022-11-02T02:40:52.369Z,72.85
2022-11-02T02:43:36.940Z,61.60
2022-11-02T02:46:19.623Z,74.85
2022-11-02T02:48:51.496Z,89.95
2022-11-02T02:51:29.962Z,81.35
2022-11-02T02:54:10.524Z,78.85
2022-11-02T02:59:46.311Z,70.22
2022-11-02T03:02:27.361Z,78.85
2022-11-02T03:04:57.868Z,83.00
2022-11-02T03:07:33.971Z,88.03
2022-11-02T03:10:21.308Z,81.70
2022-11-02T03:13:12.323Z,80.18
2022-11-02T03:15:52.857Z,84.65
2022-11-02T03:18:58.863Z,82.18
2022-11-02T03:21:40.880Z,86.85
2022-11-02T03:24:29.466Z,90.03
2022-11-02T03:27:21.795Z,83.70
2022-11-02T03:30:10.068Z,79.57
2022-11-02T03:33:02.886Z,87.53
2022-11-02T03:35:45.154Z,83.38
2022-11-02T03:38:40.985Z,90.80
2022-11-02T03:41:13.534Z,96.03
2022-11-02T03:43:45.055Z,83.93
2022-11-02T03:46:17.383Z,81.95
2022-11-02T03:48:51.408Z,87.88
2022-11-02T03:51:24.775Z,80.50
2022-11-02T03:54:01.451Z,83.03
2022-11-02T03:56:38.349Z,80.25
2022-11-02T03:59:09.584Z,67.55
2022-11-02T04:01:46.955Z,71.60
2022-11-02T04:04:17.619Z,71.05
2022-11-02T04:06:50.669Z,63.80
2022-11-02T04:09:21.009Z,72.97
2022-11-02T04:12:06.992Z,73.65
2022-11-02T04:14:40.350Z,77.65
2022-11-02T04:17:28.358Z,62.08
2022-11-02T04:19:59.708Z,62.88
2022-11-02T04:22:47.725Z,63.20
2022-11-02T04:25:21.228Z,64.43
2022-11-02T04:27:54.838Z,68.20
2022-11-02T04:30:26.163Z,70.57
2022-11-02T04:33:08.252Z,61.85
2022-11-02T04:35:39.741Z,71.45
2022-11-02T04:38:28.607Z,65.40
2022-11-02T04:41:18.336Z,74.43
2022-11-02T04:43:48.685Z,70.93
2022-11-02T04:46:21.997Z,58.10
2022-11-02T04:48:52.744Z,58.30
2022-11-02T04:51:24.325Z,69.10
2022-11-02T04:53:56.545Z,60.05
2022-11-02T04:56:28.451Z,63.83
2022-11-02T04:59:01.647Z,66.53
2022-11-02T05:01:32.927Z,54.40
2022-11-02T05:04:03.564Z,50.22
2022-11-02T05:06:34.154Z,50.70
2022-11-02T05:09:04.484Z,42.13
2022-11-02T05:11:34.863Z,55.40
2022-11-02T05:14:05.395Z,56.83
2022-11-02T05:16:36.646Z,46.22
2022-11-02T05:19:09.993Z,58.95
2022-11-02T05:21:41.345Z,43.33
2022-11-02T05:24:11.853Z,51.55
2022-11-02T05:26:42.130Z,48.38
2022-11-02T05:29:12.773Z,51.72
2022-11-02T05:31:43.112Z,43.88
2022-11-02T05:34:13.514Z,54.90
2022-11-02T05:36:43.939Z,54.13
2022-11-02T05:39:14.178Z,54.83
2022-11-02T05:41:44.781Z,51.97
2022-11-02T05:44:15.598Z,39.97
2022-11-02T05:46:46.598Z,40.10
2022-11-02T05:49:17.246Z,40.47
2022-11-02T05:51:47.734Z,33.70
2022-11-02T05:54:18.438Z,38.10
2022-11-02T05:56:48.791Z,40.28
2022-11-02T05:59:19.436Z,29.80
2022-11-02T06:01:49.775Z,36.00
2022-11-02T06:04:20.381Z,18.42
2022-11-02T06:06:50.704Z,21.85
2022-11-02T06:09:21.206Z,16.25
2022-11-02T06:11:51.505Z,21.38
2022-11-02T06:14:22.123Z,21.17
2022-11-02T06:16:52.471Z,29.33
2022-11-02T06:19:22.810Z,21.00
2022-11-02T06:21:53.125Z,24.42
2022-11-02T06:24:23.668Z,19.48
2022-11-02T06:26:54.179Z,22.95
2022-11-02T06:29:24.808Z,19.52
2022-11-02T06:31:55.117Z,22.00
2022-11-02T06:34:25.444Z,17.52
2022-11-02T06:36:55.868Z,21.20
2022-11-02T06:39:26.764Z,22.17
2022-11-02T06:41:57.233Z,16.92
2022-11-02T06:44:28.525Z,17.65
2022-11-02T06:46:58.840Z,27.38
2022-11-02T06:49:29.318Z,15.07
2022-11-02T06:52:04.621Z,18.00
2022-11-02T06:54:34.888Z,16.88
2022-11-02T06:57:05.287Z,13.68
2022-11-02T06:59:35.580Z,20.05
2022-11-02T07:02:06.012Z,19.13
2022-11-02T07:04:36.489Z,14.57
2022-11-02T07:07:06.838Z,16.65
2022-11-02T07:09:37.367Z,20.00
2022-11-02T07:12:08.654Z,19.13
2022-11-02T07:14:38.927Z,24.17
2022-11-02T07:17:09.277Z,15.43
2022-11-02T07:19:39.791Z,22.33
2022-11-02T07:22:10.217Z,22.45
2022-11-02T07:24:40.601Z,19.05
2022-11-02T07:27:10.966Z,25.50
2022-11-02T07:29:41.183Z,28.05
2022-11-02T07:32:11.544Z,20.27
2022-11-02T07:34:41.947Z,21.10
2022-11-02T07:37:12.256Z,23.67
2022-11-02T07:39:43.415Z,12.57
2022-11-02T07:42:13.792Z,23.83
2022-11-02T07:44:44.351Z,19.58
2022-11-02T07:47:14.882Z,17.77
2022-11-02T07:49:48.409Z,19.33
2022-11-02T07:52:18.715Z,23.02
2022-11-02T07:54:49.383Z,27.02
2022-11-02T07:57:19.670Z,18.77
2022-11-02T07:59:50.012Z,15.27
2022-11-02T08:02:20.792Z,27.38
2022-11-02T08:04:51.123Z,23.90
2022-11-02T08:07:21.631Z,23.42
2022-11-02T08:09:51.891Z,26.48
2022-11-02T08:12:22.218Z,20.00
2022-11-02T08:14:52.691Z,16.90
2022-11-02T08:17:23.876Z,23.20
2022-11-02T08:19:54.343Z,23.92
2022-11-02T08:22:24.687Z,21.73
2022-11-02T08:27:18.459Z,18.95
2022-11-02T08:29:48.710Z,28.00
2022-11-02T08:32:19.109Z,26.25
2022-11-02T08:34:49.458Z,15.52
2022-11-02T08:37:19.873Z,21.80
2022-11-02T08:39:50.188Z,16.77
2022-11-02T08:42:20.844Z,15.13
2022-11-02T08:44:51.216Z,20.17
2022-11-02T08:47:21.684Z,18.80
2022-11-02T08:49:53.676Z,15.55
2022-11-02T08:52:24.179Z,18.10
2022-11-02T08:54:54.736Z,23.10
2022-11-02T08:57:25.168Z,22.20
2022-11-02T08:59:55.914Z,21.60
2022-11-02T09:02:26.477Z,23.02
2022-11-02T09:04:56.797Z,31.20
2022-11-02T09:07:27.185Z,23.52
2022-11-02T09:09:58.147Z,21.58
2022-11-02T09:12:28.632Z,20.80
2022-11-02T09:14:58.909Z,16.92
2022-11-02T09:17:29.472Z,24.90
2022-11-02T09:19:59.782Z,22.65
2022-11-02T09:22:30.242Z,20.63
2022-11-02T09:25:00.487Z,25.75
2022-11-02T09:27:30.680Z,24.23
2022-11-02T09:30:01.205Z,23.25
2022-11-02T09:32:35.095Z,21.73
2022-11-02T09:35:11.855Z,28.88
2022-11-02T09:37:43.229Z,18.33
2022-11-02T09:40:15.654Z,19.38
2022-11-02T09:43:18.909Z,20.52
2022-11-02T09:45:58.921Z,22.65
2022-11-02T09:48:47.154Z,22.20
2022-11-02T09:51:23.153Z,25.27
2022-11-02T09:54:13.078Z,23.80
2022-11-02T09:56:47.262Z,26.55
2022-11-02T09:59:20.048Z,22.70
2022-11-02T10:02:25.078Z,18.48
2022-11-02T10:05:32.386Z,35.55
2022-11-02T10:08:35.882Z,30.77
2022-11-02T10:11:34.085Z,24.48
2022-11-02T10:14:15.006Z,28.75
2022-11-02T10:16:57.622Z,20.08
2022-11-02T10:19:30.483Z,19.13
2022-11-02T10:22:01.813Z,19.65
2022-11-02T10:24:44.224Z,27.00
2022-11-02T10:27:32.550Z,22.45
2022-11-02T10:30:16.230Z,20.60
2022-11-02T10:32:47.769Z,19.48
2022-11-02T10:35:57.264Z,25.88
2022-11-02T10:38:37.770Z,21.48
2022-11-02T10:41:29.030Z,30.92
2022-11-02T10:44:22.424Z,29.25
2022-11-02T10:47:07.053Z,23.42
2022-11-02T10:50:16.075Z,25.90
2022-11-02T10:52:48.420Z,23.75
2022-11-02T10:55:28.570Z,23.42
2022-11-02T11:00:36.003Z,25.92
2022-11-02T11:03:10.528Z,32.58
2022-11-02T11:06:01.557Z,32.83
2022-11-02T11:08:38.090Z,37.20
2022-11-02T11:11:29.563Z,25.13
2022-11-02T11:20:28.199Z,36.47
2022-11-02T11:23:21.129Z,43.20
2022-11-02T11:26:07.384Z,56.33
2022-11-02T11:28:54.919Z,54.88
2022-11-02T11:31:25.388Z,54.22
2022-11-02T11:33:59.754Z,40.65
2022-11-02T11:36:34.738Z,38.35
2022-11-02T11:39:27.303Z,37.90
2022-11-02T11:41:57.658Z,37.95
2022-11-02T11:44:28.017Z,41.00
2022-11-02T11:47:00.818Z,40.90
2022-11-02T11:50:03.410Z,44.22
2022-11-02T11:52:35.569Z,41.35
2022-11-02T11:55:27.638Z,52.00
2022-11-02T11:58:08.944Z,55.67
2022-11-02T12:00:38.903Z,57.05
2022-11-02T12:03:13.386Z,63.03
2022-11-02T12:06:22.128Z,76.65
2022-11-02T12:09:30.964Z,57.85
2022-11-02T12:12:18.911Z,59.42
2022-11-02T12:15:21.846Z,49.90
2022-11-02T12:18:18.676Z,54.83
2022-11-02T12:21:27.377Z,60.15
2022-11-02T12:24:18.279Z,43.97
2022-11-02T12:27:18.914Z,47.55
2022-11-02T12:30:08.667Z,39.75
2022-11-02T12:32:59.014Z,44.20
2022-11-02T12:38:39.247Z,41.42
2022-11-02T12:41:38.341Z,32.05
2022-11-02T12:44:39.803Z,31.65
2022-11-02T12:47:28.624Z,32.15
2022-11-02T12:50:23.477Z,44.47
2022-11-02T12:53:20.419Z,42.33
2022-11-02T12:55:54.554Z,40.00
2022-11-02T12:58:29.012Z,41.00
2022-11-02T13:01:24.722Z,52.53
2022-11-02T13:04:21.168Z,43.88
2022-11-02T13:06:59.351Z,46.45
2022-11-02T13:09:56.755Z,43.42
2022-11-02T13:12:27.841Z,62.97
2022-11-02T13:15:00.268Z,53.03
2022-11-02T13:17:58.535Z,43.28
2022-11-02T13:20:35.885Z,39.78
2022-11-02T13:23:35.884Z,43.03
2022-11-02T13:26:11.577Z,53.30
2022-11-02T13:28:52.868Z,47.75
2022-11-02T13:31:47.164Z,39.88
2022-11-02T13:34:33.063Z,43.17
2022-11-02T13:37:10.380Z,52.92
2022-11-02T13:39:48.746Z,62.47
2022-11-02T13:42:48.869Z,67.60
2022-11-02T13:45:58.526Z,51.85
2022-11-02T13:48:42.802Z,67.13
2022-11-02T13:51:43.831Z,56.10
2022-11-02T13:54:20.764Z,86.18
2022-11-02T13:56:56.988Z,71.07
2022-11-02T13:59:43.330Z,61.22
2022-11-02T14:02:19.867Z,63.47
2022-11-02T14:04:50.548Z,70.38
2022-11-02T14:07:29.843Z,53.25
2022-11-02T14:10:10.696Z,60.00
2022-11-02T14:12:47.089Z,55.13
2022-11-02T14:15:40.398Z,51.88
2022-11-02T14:18:30.340Z,48.30
2022-11-02T14:21:01.044Z,52.58
2022-11-02T14:23:39.267Z,53.10
2022-11-02T14:26:33.293Z,63.80
2022-11-02T14:29:08.368Z,62.97
2022-11-02T14:31:46.425Z,58.78
2022-11-02T14:34:50.838Z,60.97
2022-11-02T14:37:46.626Z,73.97
2022-11-02T14:40:44.616Z,64.18
2022-11-02T14:43:56.004Z,69.03
2022-11-02T14:46:58.948Z,60.72
2022-11-02T14:49:33.254Z,80.80
2022-11-02T14:52:11.027Z,63.13
2022-11-02T14:54:52.088Z,61.10
2022-11-02T14:57:41.224Z,61.33
2022-11-02T15:00:33.102Z,62.63
2022-11-02T15:03:04.665Z,56.00
2022-11-02T15:05:39.634Z,54.97
2022-11-02T15:08:29.111Z,49.13
2022-11-02T15:10:59.297Z,54.77
2022-11-02T15:13:41.164Z,65.22
2022-11-02T15:16:25.193Z,51.10
2022-11-02T15:18:57.273Z,44.78
2022-11-02T15:21:28.201Z,46.78
2022-11-02T15:24:17.863Z,34.05
2022-11-02T15:27:00.220Z,36.47
2022-11-02T15:29:42.798Z,44.60
2022-11-02T15:32:24.191Z,49.92
2022-11-02T15:34:56.653Z,31.55
2022-11-02T15:37:34.659Z,30.58
2022-11-02T15:40:23.898Z,33.63
2022-11-02T15:43:09.047Z,28.13
2022-11-02T15:46:03.485Z,32.00
2022-11-02T15:48:48.707Z,34.92
2022-11-02T15:51:50.584Z,43.90
2022-11-02T15:54:50.473Z,40.03
2022-11-02T15:57:50.851Z,45.33
2022-11-02T16:00:31.657Z,41.53
2022-11-02T16:03:08.792Z,31.98
2022-11-02T16:05:54.790Z,29.65
2022-11-02T16:08:33.984Z,40.10
2022-11-02T16:11:22.624Z,28.00
2022-11-02T16:14:08.629Z,27.50
2022-11-02T16:16:49.993Z,30.30
2022-11-02T16:19:24.152Z,23.17
2022-11-02T16:22:00.004Z,27.83
2022-11-02T16:24:31.452Z,38.88
2022-11-02T16:27:01.919Z,25.00
2022-11-02T16:32:10.757Z,39.58
2022-11-02T16:34:41.728Z,44.08
2022-11-02T16:37:17.172Z,54.60
2022-11-02T16:39:49.470Z,41.58
2022-11-02T16:42:25.665Z,44.05
2022-11-02T16:45:00.782Z,38.30
2022-11-02T16:47:38.081Z,29.85
2022-11-02T16:50:25.284Z,34.78
2022-11-02T16:53:04.273Z,29.83
2022-11-02T16:55:45.678Z,26.77
2022-11-02T16:58:23.364Z,32.83
2022-11-02T17:01:01.945Z,28.98
2022-11-02T17:03:35.193Z,37.90
2022-11-02T17:06:10.932Z,32.03
2022-11-02T17:08:43.892Z,33.67
2022-11-02T17:11:21.452Z,28.17
2022-11-02T17:13:56.850Z,25.05
2022-11-02T17:16:27.264Z,33.58
2022-11-02T17:18:57.113Z,28.80
2022-11-02T17:21:30.839Z,34.58
2022-11-02T17:24:01.871Z,34.17
2022-11-02T17:26:35.723Z,33.90
2022-11-02T17:29:26.231Z,22.73
2022-11-02T17:32:02.147Z,20.42
2022-11-02T17:34:33.313Z,21.55
2022-11-02T17:37:04.349Z,27.55
2022-11-02T17:39:36.364Z,21.75
2022-11-02T17:42:16.428Z,17.40
2022-11-02T17:44:48.287Z,20.73
2022-11-02T17:47:20.675Z,20.33
2022-11-02T17:49:50.682Z,18.77
2022-11-02T17:52:20.621Z,20.35
2022-11-02T17:54:50.615Z,20.90
2022-11-02T17:57:20.923Z,27.85
2022-11-02T17:59:50.928Z,20.50
2022-11-02T18:02:20.897Z,17.05
2022-11-02T18:04:50.859Z,20.20
2022-11-02T18:07:20.722Z,20.17
2022-11-02T18:09:51.367Z,22.13
2022-11-02T18:12:21.591Z,19.17
2022-11-02T18:14:51.504Z,19.85
2022-11-02T18:17:22.159Z,18.50
2022-11-02T18:19:52.003Z,29.15
2022-11-02T18:22:21.815Z,22.38
2022-11-02T18:24:51.910Z,20.45
2022-11-02T18:27:23.691Z,21.13
2022-11-02T18:29:54.841Z,18.90
2022-11-02T18:32:25.469Z,17.50
2022-11-02T18:34:55.350Z,21.48
2022-11-02T18:37:25.554Z,28.55
2022-11-02T18:39:55.336Z,27.20
2022-11-02T18:42:25.146Z,26.23
2022-11-02T18:44:54.936Z,38.53
2022-11-02T18:47:24.672Z,44.80
2022-11-02T18:49:54.623Z,31.98
2022-11-02T18:52:26.001Z,34.67
2022-11-02T18:54:58.868Z,31.15
2022-11-02T18:57:28.710Z,36.95
2022-11-02T18:59:58.686Z,26.33
2022-11-02T19:02:29.151Z,22.98
2022-11-02T19:07:41.559Z,23.00
2022-11-02T19:10:11.782Z,23.30
2022-11-02T19:12:41.748Z,22.05
2022-11-02T19:15:11.969Z,15.38
2022-11-02T19:17:41.793Z,14.60
2022-11-02T19:20:12.081Z,16.77
2022-11-02T19:22:42.038Z,21.85
2022-11-02T19:25:13.635Z,16.15
2022-11-02T19:27:43.586Z,21.15
2022-11-02T19:30:14.807Z,16.17
2022-11-02T19:32:44.684Z,27.42
2022-11-02T19:35:14.487Z,26.95
2022-11-02T19:37:44.255Z,27.50
2022-11-02T19:40:14.425Z,39.80
2022-11-02T19:42:44.173Z,41.92
2022-11-02T19:45:18.236Z,40.85
2022-11-02T19:47:48.147Z,37.40
2022-11-02T19:50:18.126Z,48.28
2022-11-02T19:52:48.108Z,31.25
2022-11-02T19:55:18.934Z,33.95
2022-11-02T19:57:48.964Z,41.38
2022-11-02T20:00:19.049Z,36.63
2022-11-02T20:02:52.565Z,39.10
2022-11-02T20:05:22.438Z,35.58
2022-11-02T20:07:53.863Z,27.20
2022-11-02T20:10:23.600Z,26.10
2022-11-02T20:12:53.401Z,28.63
2022-11-02T20:15:23.254Z,19.08
2022-11-02T20:18:17.916Z,25.00
2022-11-02T20:20:42.909Z,22.77
2022-11-02T20:23:12.734Z,13.70
2022-11-02T20:25:42.513Z,14.25
2022-11-02T20:28:12.556Z,14.55
2022-11-02T20:30:44.757Z,15.25
2022-11-02T20:33:14.658Z,14.88
2022-11-02T20:35:47.343Z,17.02
2022-11-02T20:38:17.482Z,12.85
2022-11-02T20:40:47.370Z,32.72
2022-11-02T20:43:17.422Z,22.50
2022-11-02T20:45:47.609Z,32.55
2022-11-02T20:48:17.491Z,30.30
2022-11-02T20:50:47.698Z,30.23
2022-11-02T20:53:17.591Z,28.30
2022-11-02T20:55:48.026Z,34.25
2022-11-02T20:58:17.934Z,93.38
2022-11-02T21:00:49.719Z,18.40
2022-11-02T21:03:20.340Z,19.20
2022-11-02T21:08:21.808Z,21.75
2022-11-02T21:11:00.296Z,16.02
2022-11-02T21:13:49.493Z,20.17
2022-11-02T21:16:19.539Z,16.88
2022-11-02T21:18:49.680Z,17.40
2022-11-02T21:21:22.119Z,21.17
2022-11-02T21:23:52.228Z,22.48
2022-11-02T21:26:22.200Z,19.90
2022-11-02T21:28:52.146Z,18.25
2022-11-02T21:31:23.908Z,16.98
2022-11-02T21:33:54.321Z,18.80
2022-11-02T21:36:24.224Z,12.43
2022-11-02T21:38:54.105Z,12.82
2022-11-02T21:41:31.084Z,16.52
2022-11-02T21:44:00.852Z,15.93
2022-11-02T21:46:30.747Z,15.38
2022-11-02T21:49:00.775Z,11.65
2022-11-02T21:51:30.784Z,18.58
2022-11-02T21:54:00.687Z,18.23
2022-11-02T21:56:33.534Z,22.92
2022-11-02T21:59:03.813Z,25.42
2022-11-02T22:01:50.940Z,38.13
2022-11-02T22:04:26.476Z,33.40
2022-11-02T22:06:57.592Z,27.10
2022-11-02T22:09:27.921Z,42.08
2022-11-02T22:12:13.046Z,27.13
2022-11-02T22:14:45.563Z,32.78
2022-11-02T22:17:28.668Z,25.75
2022-11-02T22:20:05.847Z,24.15
2022-11-02T22:22:35.679Z,29.08
2022-11-02T22:25:05.522Z,26.35
2022-11-02T22:27:35.400Z,30.08
2022-11-02T22:30:05.365Z,25.85
2022-11-02T22:32:36.016Z,14.07
2022-11-02T22:35:06.288Z,16.08
2022-11-02T22:37:54.400Z,12.52
2022-11-02T22:40:24.569Z,13.30
2022-11-02T22:42:57.512Z,14.02
2022-11-02T22:45:34.137Z,19.70
2022-11-02T22:48:04.024Z,14.07
2022-11-02T22:50:33.833Z,11.70
2022-11-02T22:53:04.077Z,24.13
2022-11-02T22:58:03.419Z,12.90
2022-11-02T23:00:33.939Z,13.40
2022-11-02T23:05:33.704Z,14.07
2022-11-02T23:08:03.830Z,11.30
2022-11-02T23:10:48.159Z,9.85
2022-11-02T23:13:20.548Z,11.23
2022-11-02T23:15:50.556Z,17.58
2022-11-02T23:18:40.144Z,11.50
2022-11-02T23:21:09.960Z,15.80
2022-11-02T23:23:57.205Z,13.57
2022-11-02T23:26:27.025Z,12.05
2022-11-02T23:29:07.526Z,18.77
2022-11-02T23:31:56.804Z,18.08
2022-11-02T23:34:26.669Z,20.10
2022-11-02T23:36:56.446Z,23.02
2022-11-02T23:39:38.400Z,19.92
2022-11-02T23:42:08.249Z,23.15
2022-11-02T23:44:38.143Z,22.27
2022-11-02T23:47:08.219Z,14.57
2022-11-02T23:49:38.020Z,18.77
2022-11-02T23:52:18.821Z,20.92
2022-11-02T23:54:58.969Z,19.60
2022-11-02T23:57:28.934Z,20.40
2022-11-02T23:59:58.746Z,26.90
